Time;durP1;ratioP1;P1;durP2;ratioP2;P2;SDS_P1;SDS_P2;PMS_P1;PMS_P2;Temp;Humidity;BMP_temperature;BMP_pressure;BME280_temperature;BME280_humidity;BME280_pressure;Samples;Min_cycle;Max_cycle;Signal;HPM_P1;HPM_P2
2022/05/19 00:01:20;;;;;;;22.20;16.50;;;;;;;;;;4352977;32;20195;-71
2022/05/19 00:03:45;;;;;;;20.45;16.25;;;;;;;;;;4351595;32;20050;-70
2022/05/19 00:06:11;;;;;;;20.95;14.87;;;;;;;;;;4362562;32;20059;-70
2022/05/19 00:08:36;;;;;;;21.77;16.55;;;;;;;;;;4362622;32;20595;-70
2022/05/19 00:11:03;;;;;;;24.05;17.35;;;;;;;;;;4345433;32;20087;-70
2022/05/19 00:13:29;;;;;;;26.98;17.37;;;;;;;;;;4345154;33;20059;-70
2022/05/19 00:15:54;;;;;;;19.35;17.17;;;;;;;;;;4332875;33;20369;-70
2022/05/19 00:18:19;;;;;;;21.50;17.33;;;;;;;;;;4335925;33;20027;-69
2022/05/19 00:20:45;;;;;;;24.35;16.67;;;;;;;;;;4348572;33;20334;-70
2022/05/19 00:23:10;;;;;;;20.95;18.05;;;;;;;;;;4349487;33;20518;-70
2022/05/19 00:25:35;;;;;;;26.15;17.52;;;;;;;;;;4347509;32;20070;-70
2022/05/19 00:28:00;;;;;;;19.62;17.05;;;;;;;;;;4347909;32;20513;-70
2022/05/19 00:30:26;;;;;;;21.20;17.35;;;;;;;;;;4347789;32;20403;-71
2022/05/19 00:32:51;;;;;;;19.10;17.08;;;;;;;;;;4359307;33;21739;-70
2022/05/19 00:35:16;;;;;;;25.58;18.33;;;;;;;;;;4362915;32;20032;-71
2022/05/19 00:37:41;;;;;;;23.15;17.17;;;;;;;;;;4362906;32;20062;-69
2022/05/19 00:40:08;;;;;;;26.17;18.83;;;;;;;;;;4354262;32;20040;-70
2022/05/19 00:42:46;;;;;;;25.73;18.15;;;;;;;;;;4347930;32;20147;-70
2022/05/19 00:45:13;;;;;;;23.83;19.48;;;;;;;;;;4358159;33;20047;-70
2022/05/19 00:47:41;;;;;;;25.85;18.42;;;;;;;;;;4348304;32;20032;-71
2022/05/19 00:50:07;;;;;;;25.92;19.12;;;;;;;;;;4350373;32;20093;-71
2022/05/19 00:52:42;;;;;;;21.87;17.55;;;;;;;;;;4362114;32;20035;-71
2022/05/19 00:55:13;;;;;;;36.63;21.37;;;;;;;;;;4363121;32;20103;-71
2022/05/19 00:57:41;;;;;;;24.52;19.70;;;;;;;;;;4362981;32;20078;-71
2022/05/19 01:00:09;;;;;;;27.05;19.52;;;;;;;;;;4373087;32;20069;-71
2022/05/19 01:02:35;;;;;;;32.45;20.15;;;;;;;;;;4351056;32;20394;-71
2022/05/19 01:05:02;;;;;;;32.03;20.50;;;;;;;;;;4346769;32;20028;-71
2022/05/19 01:07:32;;;;;;;24.80;20.42;;;;;;;;;;4347318;32;20409;-71
2022/05/19 01:09:58;;;;;;;28.17;20.67;;;;;;;;;;4352389;32;20035;-70
2022/05/19 01:12:24;;;;;;;23.70;19.37;;;;;;;;;;4348715;33;20062;-71
2022/05/19 01:14:49;;;;;;;31.50;21.80;;;;;;;;;;4373101;32;20050;-71
2022/05/19 01:17:15;;;;;;;29.27;22.17;;;;;;;;;;4362916;32;20141;-71
2022/05/19 01:19:48;;;;;;;25.10;19.85;;;;;;;;;;4362581;32;20071;-71
2022/05/19 01:22:19;;;;;;;27.15;20.75;;;;;;;;;;4360892;32;20058;-71
2022/05/19 01:24:56;;;;;;;26.58;21.08;;;;;;;;;;4360952;32;20085;-71
2022/05/19 01:27:22;;;;;;;24.52;20.05;;;;;;;;;;4362926;32;20074;-71
2022/05/19 01:29:47;;;;;;;26.50;20.88;;;;;;;;;;4359586;32;20060;-70
2022/05/19 01:32:23;;;;;;;28.23;21.70;;;;;;;;;;4363028;32;20089;-71
2022/05/19 01:34:48;;;;;;;28.52;23.12;;;;;;;;;;4362108;32;20202;-70
2022/05/19 01:37:13;;;;;;;29.75;21.92;;;;;;;;;;4360870;32;20031;-71
2022/05/19 01:39:39;;;;;;;29.52;21.42;;;;;;;;;;4362104;32;20193;-70
2022/05/19 01:42:23;;;;;;;23.48;19.73;;;;;;;;;;4352172;32;20103;-70
2022/05/19 01:44:55;;;;;;;27.87;22.25;;;;;;;;;;4359294;32;20085;-70
2022/05/19 01:47:26;;;;;;;26.95;21.85;;;;;;;;;;4347220;33;20078;-70
2022/05/19 01:50:10;;;;;;;33.72;22.15;;;;;;;;;;4346063;32;20424;-69
2022/05/19 01:52:46;;;;;;;27.48;20.90;;;;;;;;;;4347306;33;20028;-71
2022/05/19 01:55:15;;;;;;;29.90;23.48;;;;;;;;;;4348347;32;20027;-70
2022/05/19 01:57:49;;;;;;;29.05;21.45;;;;;;;;;;4362561;32;20031;-70
2022/05/19 02:00:19;;;;;;;22.67;19.45;;;;;;;;;;4359139;32;20028;-70
2022/05/19 02:03:04;;;;;;;27.92;22.08;;;;;;;;;;4347784;32;20097;-70
2022/05/19 02:05:40;;;;;;;30.27;23.33;;;;;;;;;;4351690;32;20023;-70
2022/05/19 02:08:09;;;;;;;29.15;21.37;;;;;;;;;;4361053;32;20089;-70
2022/05/19 02:10:38;;;;;;;38.17;24.60;;;;;;;;;;4360792;32;20031;-70
2022/05/19 02:13:04;;;;;;;29.75;22.25;;;;;;;;;;4360509;32;20027;-70
2022/05/19 02:15:30;;;;;;;26.80;23.05;;;;;;;;;;4360776;32;20027;-71
2022/05/19 02:17:56;;;;;;;31.98;26.02;;;;;;;;;;4362232;32;20027;-70
2022/05/19 02:20:22;;;;;;;34.15;26.05;;;;;;;;;;4360129;32;20077;-71
2022/05/19 02:22:48;;;;;;;42.05;27.17;;;;;;;;;;4360585;32;20057;-70
2022/05/19 02:25:13;;;;;;;35.35;29.95;;;;;;;;;;4361670;32;20036;-71
2022/05/19 02:27:42;;;;;;;39.53;32.28;;;;;;;;;;4361714;32;20054;-72
2022/05/19 02:30:11;;;;;;;44.38;33.88;;;;;;;;;;4361813;32;20027;-71
2022/05/19 02:32:37;;;;;;;46.75;34.72;;;;;;;;;;4358757;32;20455;-71
2022/05/19 02:35:03;;;;;;;41.90;34.78;;;;;;;;;;4356691;32;20040;-71
2022/05/19 02:37:28;;;;;;;49.25;36.67;;;;;;;;;;4346826;32;20036;-71
2022/05/19 02:39:53;;;;;;;55.25;40.88;;;;;;;;;;4346652;32;20074;-73
2022/05/19 02:42:19;;;;;;;53.20;40.30;;;;;;;;;;4345418;32;20046;-72
2022/05/19 02:44:44;;;;;;;51.55;38.10;;;;;;;;;;4344683;33;20162;-71
2022/05/19 02:47:09;;;;;;;50.20;39.67;;;;;;;;;;4347492;33;20406;-72
2022/05/19 02:49:34;;;;;;;54.83;41.43;;;;;;;;;;4346840;32;20191;-71
2022/05/19 02:51:59;;;;;;;54.28;41.03;;;;;;;;;;4356601;32;20174;-71
2022/05/19 02:54:24;;;;;;;47.80;39.17;;;;;;;;;;4348188;32;20460;-71
2022/05/19 02:56:49;;;;;;;58.28;42.90;;;;;;;;;;4356441;33;20414;-71
2022/05/19 02:59:15;;;;;;;49.35;37.80;;;;;;;;;;4358071;32;20422;-71
2022/05/19 03:01:40;;;;;;;40.45;29.17;;;;;;;;;;4345442;33;20452;-71
2022/05/19 03:04:05;;;;;;;31.55;24.02;;;;;;;;;;4346364;33;20078;-72
2022/05/19 03:06:30;;;;;;;31.27;24.27;;;;;;;;;;4346133;33;20062;-72
2022/05/19 03:08:56;;;;;;;29.58;19.25;;;;;;;;;;4345951;33;20518;-72
2022/05/19 03:11:21;;;;;;;19.07;10.80;;;;;;;;;;4347199;33;20471;-71
2022/05/19 03:13:46;;;;;;;13.37;8.87;;;;;;;;;;4345174;33;20132;-71
2022/05/19 03:16:11;;;;;;;9.10;5.95;;;;;;;;;;4356655;33;20588;-71
2022/05/19 03:18:36;;;;;;;17.23;7.07;;;;;;;;;;4347952;33;20035;-71
2022/05/19 03:21:01;;;;;;;13.75;5.97;;;;;;;;;;4361506;32;20222;-71
2022/05/19 03:23:26;;;;;;;10.13;6.23;;;;;;;;;;4358956;32;20054;-72
2022/05/19 03:25:53;;;;;;;12.90;5.32;;;;;;;;;;4345544;33;20512;-71
2022/05/19 03:28:18;;;;;;;8.52;4.62;;;;;;;;;;4347092;33;20166;-71
2022/05/19 03:30:43;;;;;;;5.62;4.43;;;;;;;;;;4345351;33;20023;-71
2022/05/19 03:33:09;;;;;;;9.88;4.43;;;;;;;;;;4348004;33;20154;-72
2022/05/19 03:35:34;;;;;;;6.75;4.30;;;;;;;;;;4361841;32;20028;-72
2022/05/19 03:37:59;;;;;;;7.15;4.53;;;;;;;;;;4360372;32;20127;-72
2022/05/19 03:40:24;;;;;;;8.48;5.18;;;;;;;;;;4360182;32;20127;-71
2022/05/19 03:42:49;;;;;;;5.43;4.93;;;;;;;;;;4361704;32;20065;-71
2022/05/19 03:45:14;;;;;;;9.00;4.28;;;;;;;;;;4360070;32;20116;-71
2022/05/19 03:47:40;;;;;;;7.70;4.65;;;;;;;;;;4361159;32;20548;-71
2022/05/19 03:50:05;;;;;;;5.60;4.97;;;;;;;;;;4345829;32;20035;-71
2022/05/19 03:52:31;;;;;;;9.45;4.90;;;;;;;;;;4345102;33;20090;-71
2022/05/19 03:54:56;;;;;;;5.95;4.40;;;;;;;;;;4356998;33;20346;-71
2022/05/19 03:57:23;;;;;;;12.07;5.95;;;;;;;;;;4362393;32;20059;-71
2022/05/19 03:59:48;;;;;;;16.67;6.05;;;;;;;;;;4364044;32;20035;-72
2022/05/19 04:02:14;;;;;;;19.83;7.53;;;;;;;;;;4364471;32;20327;-70
2022/05/19 04:04:39;;;;;;;17.75;7.00;;;;;;;;;;4349084;32;20056;-72
2022/05/19 04:07:04;;;;;;;20.85;7.47;;;;;;;;;;4346389;33;20036;-73
2022/05/19 04:09:29;;;;;;;13.13;6.97;;;;;;;;;;4360914;32;20036;-73
2022/05/19 04:11:54;;;;;;;17.80;7.93;;;;;;;;;;4348496;33;20151;-72
2022/05/19 04:14:20;;;;;;;13.38;7.50;;;;;;;;;;4348498;32;20050;-72
2022/05/19 04:16:49;;;;;;;10.75;7.37;;;;;;;;;;4362989;32;20128;-72
2022/05/19 04:19:15;;;;;;;10.15;8.10;;;;;;;;;;4363683;32;20053;-72
2022/05/19 04:21:40;;;;;;;15.45;8.73;;;;;;;;;;4365682;32;20027;-72
2022/05/19 04:24:06;;;;;;;14.75;9.23;;;;;;;;;;4353245;32;20151;-71
2022/05/19 04:26:31;;;;;;;14.13;8.75;;;;;;;;;;4347236;32;20024;-72
2022/05/19 04:28:56;;;;;;;16.23;11.57;;;;;;;;;;4348773;32;20062;-73
2022/05/19 04:31:22;;;;;;;12.37;10.13;;;;;;;;;;4348934;32;20211;-74
2022/05/19 04:33:47;;;;;;;15.65;11.35;;;;;;;;;;4348642;32;20044;-73
2022/05/19 04:36:12;;;;;;;19.02;12.65;;;;;;;;;;4349353;32;20067;-73
2022/05/19 04:38:38;;;;;;;14.40;10.63;;;;;;;;;;4348178;32;20036;-72
2022/05/19 04:41:04;;;;;;;18.17;13.25;;;;;;;;;;4348844;32;20510;-72
2022/05/19 04:43:29;;;;;;;18.90;13.07;;;;;;;;;;4347926;32;20031;-72
2022/05/19 04:45:55;;;;;;;20.65;13.93;;;;;;;;;;4348706;32;20066;-72
2022/05/19 04:48:21;;;;;;;16.48;14.30;;;;;;;;;;4346213;32;20024;-72
2022/05/19 04:50:46;;;;;;;20.00;15.00;;;;;;;;;;4347882;33;20028;-72
2022/05/19 04:53:11;;;;;;;17.87;14.63;;;;;;;;;;4347507;32;20130;-71
2022/05/19 04:55:37;;;;;;;19.80;14.40;;;;;;;;;;4362073;32;20077;-72
2022/05/19 04:58:03;;;;;;;19.15;14.55;;;;;;;;;;4374813;32;20078;-72
2022/05/19 05:00:28;;;;;;;20.35;14.50;;;;;;;;;;4363020;32;20023;-72
2022/05/19 05:02:53;;;;;;;20.73;15.07;;;;;;;;;;4362674;32;20354;-71
2022/05/19 05:05:18;;;;;;;19.20;15.20;;;;;;;;;;4361085;32;20019;-72
2022/05/19 05:07:43;;;;;;;25.43;16.80;;;;;;;;;;4361130;32;20050;-73
2022/05/19 05:10:09;;;;;;;25.48;18.52;;;;;;;;;;4361608;32;20542;-72
2022/05/19 05:12:34;;;;;;;22.10;16.02;;;;;;;;;;4363013;32;20094;-71
2022/05/19 05:14:59;;;;;;;21.37;16.05;;;;;;;;;;4359161;32;20024;-73
2022/05/19 05:17:25;;;;;;;22.35;16.73;;;;;;;;;;4348540;33;20402;-72
2022/05/19 05:19:50;;;;;;;22.17;16.37;;;;;;;;;;4348496;33;20433;-71
2022/05/19 05:22:15;;;;;;;20.92;16.75;;;;;;;;;;4347087;33;20381;-71
2022/05/19 05:24:40;;;;;;;19.47;15.97;;;;;;;;;;4361240;32;20077;-73
2022/05/19 05:27:05;;;;;;;17.80;15.90;;;;;;;;;;4360328;32;20119;-71
2022/05/19 05:29:31;;;;;;;20.33;15.77;;;;;;;;;;4346736;32;20132;-72
2022/05/19 05:31:56;;;;;;;18.92;15.82;;;;;;;;;;4346332;32;20024;-73
2022/05/19 05:34:21;;;;;;;17.00;13.57;;;;;;;;;;4347650;32;20054;-72
2022/05/19 05:36:47;;;;;;;17.02;14.68;;;;;;;;;;4348975;32;20133;-72
2022/05/19 05:39:12;;;;;;;18.05;15.02;;;;;;;;;;4358825;32;20358;-72
2022/05/19 05:41:37;;;;;;;19.05;15.15;;;;;;;;;;4356343;32;20062;-71
2022/05/19 05:44:02;;;;;;;17.08;14.70;;;;;;;;;;4346376;32;20128;-73
2022/05/19 05:46:28;;;;;;;18.55;13.88;;;;;;;;;;4347030;32;20446;-72
2022/05/19 05:48:53;;;;;;;16.20;13.95;;;;;;;;;;4358402;32;20032;-71
2022/05/19 05:51:18;;;;;;;21.62;15.25;;;;;;;;;;4347291;32;20046;-72
2022/05/19 05:53:44;;;;;;;17.27;13.88;;;;;;;;;;4353866;32;20030;-71
2022/05/19 05:56:11;;;;;;;15.77;13.25;;;;;;;;;;4357542;32;20319;-71
2022/05/19 05:58:36;;;;;;;16.62;13.45;;;;;;;;;;4347714;32;20032;-72
2022/05/19 06:01:02;;;;;;;15.57;12.85;;;;;;;;;;4346816;33;20051;-71
2022/05/19 06:03:27;;;;;;;16.33;13.07;;;;;;;;;;4347823;32;20346;-71
2022/05/19 06:05:52;;;;;;;16.20;12.27;;;;;;;;;;4347394;32;20167;-71
2022/05/19 06:08:17;;;;;;;13.35;11.30;;;;;;;;;;4344453;33;20081;-72
2022/05/19 06:10:43;;;;;;;16.23;11.95;;;;;;;;;;4345236;32;20032;-71
2022/05/19 06:13:08;;;;;;;15.15;11.35;;;;;;;;;;4346416;33;20043;-71
2022/05/19 06:15:34;;;;;;;13.45;11.43;;;;;;;;;;4348270;32;20174;-72
2022/05/19 06:17:59;;;;;;;12.70;10.27;;;;;;;;;;4346589;33;20019;-71
2022/05/19 06:20:24;;;;;;;15.32;10.85;;;;;;;;;;4345738;33;20366;-71
2022/05/19 06:22:50;;;;;;;13.68;10.38;;;;;;;;;;4350744;32;20138;-72
2022/05/19 06:25:16;;;;;;;14.25;11.07;;;;;;;;;;4360849;32;20110;-70
2022/05/19 06:27:42;;;;;;;11.77;10.50;;;;;;;;;;4360600;32;20267;-72
2022/05/19 06:30:08;;;;;;;13.93;10.40;;;;;;;;;;4361986;32;20024;-71
2022/05/19 06:32:34;;;;;;;13.62;10.13;;;;;;;;;;4360045;32;20039;-71
2022/05/19 06:34:59;;;;;;;11.02;9.80;;;;;;;;;;4361812;32;20027;-71
2022/05/19 06:37:24;;;;;;;13.25;10.43;;;;;;;;;;4361761;32;20044;-71
2022/05/19 06:39:49;;;;;;;16.55;10.68;;;;;;;;;;4360226;32;20047;-70
2022/05/19 06:42:14;;;;;;;12.02;10.45;;;;;;;;;;4361925;32;20032;-71
2022/05/19 06:44:41;;;;;;;11.90;10.35;;;;;;;;;;4360033;32;20027;-71
2022/05/19 06:47:13;;;;;;;12.48;9.77;;;;;;;;;;4358994;32;20027;-71
2022/05/19 06:49:39;;;;;;;13.20;10.80;;;;;;;;;;4360139;32;20015;-71
2022/05/19 06:52:04;;;;;;;13.98;10.68;;;;;;;;;;4361255;32;20397;-71
2022/05/19 06:54:29;;;;;;;14.35;10.05;;;;;;;;;;4347435;32;20111;-70
2022/05/19 06:56:54;;;;;;;12.13;10.88;;;;;;;;;;4345505;33;20036;-72
2022/05/19 06:59:22;;;;;;;11.45;10.30;;;;;;;;;;4347561;33;20124;-71
2022/05/19 07:01:47;;;;;;;11.90;9.52;;;;;;;;;;4348366;33;20511;-70
2022/05/19 07:04:14;;;;;;;11.52;9.32;;;;;;;;;;4346744;33;20197;-70
2022/05/19 07:06:39;;;;;;;11.50;8.40;;;;;;;;;;4345458;33;20085;-70
2022/05/19 07:09:04;;;;;;;10.02;9.02;;;;;;;;;;4346865;33;20363;-70
2022/05/19 07:11:30;;;;;;;12.30;9.25;;;;;;;;;;4345231;33;20103;-70
2022/05/19 07:13:56;;;;;;;14.23;9.30;;;;;;;;;;4346864;33;20036;-70
2022/05/19 07:16:21;;;;;;;15.10;8.23;;;;;;;;;;4345953;33;20118;-71
2022/05/19 07:18:47;;;;;;;10.82;8.27;;;;;;;;;;4346861;33;20043;-70
2022/05/19 07:21:12;;;;;;;10.82;7.25;;;;;;;;;;4344756;33;20381;-71
2022/05/19 07:23:38;;;;;;;8.73;7.82;;;;;;;;;;4358271;32;20078;-70
2022/05/19 07:26:03;;;;;;;9.60;8.40;;;;;;;;;;4360060;32;20353;-70
2022/05/19 07:28:28;;;;;;;15.00;7.90;;;;;;;;;;4359968;32;20322;-70
2022/05/19 07:30:53;;;;;;;9.82;7.57;;;;;;;;;;4360050;32;20147;-70
2022/05/19 07:33:18;;;;;;;9.80;7.47;;;;;;;;;;4363640;32;20150;-70
2022/05/19 07:35:46;;;;;;;12.48;8.45;;;;;;;;;;4362738;32;20093;-70
2022/05/19 07:38:11;;;;;;;13.43;8.13;;;;;;;;;;4364364;32;20223;-70
2022/05/19 07:40:37;;;;;;;9.98;6.97;;;;;;;;;;4362978;32;20064;-71
2022/05/19 07:45:46;;;;;;;14.98;7.35;;;;;;;;;;4364280;32;20093;-70
2022/05/19 07:48:11;;;;;;;11.93;7.50;;;;;;;;;;4364028;32;20035;-71
2022/05/19 07:50:36;;;;;;;12.63;6.57;;;;;;;;;;4362339;32;20500;-71
2022/05/19 07:53:01;;;;;;;18.85;6.78;;;;;;;;;;4357728;32;20425;-70
2022/05/19 07:55:26;;;;;;;11.80;6.43;;;;;;;;;;4349382;32;20040;-70
2022/05/19 07:57:52;;;;;;;12.80;6.15;;;;;;;;;;4349510;33;20226;-69
2022/05/19 08:00:17;;;;;;;12.40;5.93;;;;;;;;;;4349455;33;20028;-70
2022/05/19 08:02:43;;;;;;;13.68;6.70;;;;;;;;;;4360278;32;20027;-69
2022/05/19 08:05:09;;;;;;;16.00;7.03;;;;;;;;;;4348276;32;20414;-70
2022/05/19 08:07:34;;;;;;;10.35;6.07;;;;;;;;;;4349307;33;20087;-70
2022/05/19 08:15:36;;;;;;;16.12;6.07;;;;;;;;;;4348830;33;20393;-69
2022/05/19 08:18:12;;;;;;;10.70;5.93;;;;;;;;;;4349604;33;20024;-69
2022/05/19 08:20:39;;;;;;;13.13;7.70;;;;;;;;;;4349830;32;20023;-70
2022/05/19 08:23:05;;;;;;;9.40;6.05;;;;;;;;;;4356807;32;20074;-70
2022/05/19 08:25:30;;;;;;;13.52;6.35;;;;;;;;;;4362484;32;20402;-71
2022/05/19 08:27:56;;;;;;;8.80;6.20;;;;;;;;;;4363507;32;20054;-70
2022/05/19 08:30:21;;;;;;;7.45;6.30;;;;;;;;;;4362172;32;20481;-70
2022/05/19 08:32:47;;;;;;;8.45;6.05;;;;;;;;;;4362930;32;20028;-68
2022/05/19 08:35:12;;;;;;;12.02;5.80;;;;;;;;;;4363619;32;20078;-70
2022/05/19 08:37:38;;;;;;;9.80;5.57;;;;;;;;;;4362667;32;20044;-70
2022/05/19 08:40:03;;;;;;;9.85;5.87;;;;;;;;;;4365356;32;20074;-70
2022/05/19 08:42:32;;;;;;;11.52;5.95;;;;;;;;;;4368426;32;20043;-69
2022/05/19 08:44:58;;;;;;;10.07;5.85;;;;;;;;;;4363755;32;20031;-69
2022/05/19 08:47:27;;;;;;;12.45;6.05;;;;;;;;;;4363063;32;20024;-69
2022/05/19 08:50:01;;;;;;;6.72;4.53;;;;;;;;;;4361593;32;20520;-70
2022/05/19 08:52:31;;;;;;;11.65;5.12;;;;;;;;;;4357982;32;20035;-69
2022/05/19 08:54:57;;;;;;;7.43;4.47;;;;;;;;;;4348639;32;20027;-69
2022/05/19 08:57:35;;;;;;;5.97;3.85;;;;;;;;;;4348826;32;20544;-70
2022/05/19 09:00:04;;;;;;;5.78;4.15;;;;;;;;;;4348614;32;20320;-70
2022/05/19 09:02:48;;;;;;;7.72;4.78;;;;;;;;;;4347106;32;20035;-70
2022/05/19 09:05:16;;;;;;;5.75;4.70;;;;;;;;;;4346680;32;20382;-69
2022/05/19 09:07:58;;;;;;;6.72;3.40;;;;;;;;;;4348684;32;20040;-68
2022/05/19 09:10:36;;;;;;;7.80;4.47;;;;;;;;;;4348271;32;20040;-70
2022/05/19 09:13:22;;;;;;;6.28;3.78;;;;;;;;;;4359283;32;20028;-69
2022/05/19 09:15:47;;;;;;;11.45;4.37;;;;;;;;;;4351876;32;20489;-69
2022/05/19 09:18:14;;;;;;;6.10;4.00;;;;;;;;;;4348301;32;20027;-69
2022/05/19 09:20:50;;;;;;;7.78;4.55;;;;;;;;;;4347168;32;20346;-69
2022/05/19 09:23:15;;;;;;;7.68;4.57;;;;;;;;;;4359213;32;20433;-69
2022/05/19 09:25:44;;;;;;;5.20;4.00;;;;;;;;;;4362846;32;20054;-70
2022/05/19 09:28:11;;;;;;;8.48;4.32;;;;;;;;;;4360937;32;20475;-69
2022/05/19 09:30:45;;;;;;;6.65;3.60;;;;;;;;;;4361827;32;20068;-70
2022/05/19 09:33:18;;;;;;;5.55;4.37;;;;;;;;;;4361903;32;20049;-70
2022/05/19 09:35:47;;;;;;;5.37;4.37;;;;;;;;;;4362197;32;20094;-69
2022/05/19 09:38:32;;;;;;;6.00;4.47;;;;;;;;;;4361714;32;20073;-70
2022/05/19 09:41:04;;;;;;;18.85;6.18;;;;;;;;;;4360850;32;20095;-70
2022/05/19 09:43:33;;;;;;;8.30;5.65;;;;;;;;;;4361790;32;20019;-70
2022/05/19 09:46:04;;;;;;;7.55;5.07;;;;;;;;;;4360883;32;20035;-70
2022/05/19 09:48:34;;;;;;;8.85;5.37;;;;;;;;;;4360900;32;20110;-69
2022/05/19 09:51:00;;;;;;;6.57;5.80;;;;;;;;;;4362070;32;20035;-70
2022/05/19 09:53:27;;;;;;;8.85;6.15;;;;;;;;;;4346406;32;20086;-69
2022/05/19 09:55:54;;;;;;;12.27;6.57;;;;;;;;;;4346213;33;20063;-72
2022/05/19 09:58:19;;;;;;;7.70;4.80;;;;;;;;;;4347455;33;20027;-69
2022/05/19 10:00:53;;;;;;;8.40;5.73;;;;;;;;;;4345544;32;20035;-70
2022/05/19 10:03:24;;;;;;;10.18;6.43;;;;;;;;;;4346711;33;20119;-70
2022/05/19 10:05:53;;;;;;;8.82;6.18;;;;;;;;;;4347145;32;20028;-70
2022/05/19 10:08:26;;;;;;;8.13;6.12;;;;;;;;;;4347451;32;20097;-69
2022/05/19 10:10:59;;;;;;;9.70;6.40;;;;;;;;;;4346044;32;20107;-71
2022/05/19 10:13:31;;;;;;;12.00;6.20;;;;;;;;;;4345629;32;20043;-70
2022/05/19 10:16:00;;;;;;;9.65;7.07;;;;;;;;;;4347326;32;20036;-70
2022/05/19 10:18:37;;;;;;;6.85;5.53;;;;;;;;;;4346714;32;20031;-70
2022/05/19 10:21:02;;;;;;;;;;;;;;;;;;4358777;32;20414;-70
2022/05/19 10:23:36;;;;;;;8.07;7.12;;;;;;;;;;4361457;32;20347;-70
2022/05/19 10:26:10;;;;;;;8.00;7.00;;;;;;;;;;4362810;32;20054;-69
2022/05/19 10:31:38;;;;;;;10.23;8.05;;;;;;;;;;4361471;32;20413;-69
2022/05/19 10:34:20;;;;;;;13.68;7.90;;;;;;;;;;4362095;32;20032;-70
2022/05/19 10:36:52;;;;;;;10.02;8.02;;;;;;;;;;4358593;32;20118;-69
2022/05/19 10:39:43;;;;;;;10.27;9.00;;;;;;;;;;4349059;33;20062;-69
2022/05/19 10:42:09;;;;;;;10.85;9.75;;;;;;;;;;4351253;32;20448;-69
2022/05/19 10:44:53;;;;;;;12.07;9.18;;;;;;;;;;4348508;33;20028;-69
2022/05/19 10:47:24;;;;;;;14.73;10.32;;;;;;;;;;4347313;32;20027;-69
2022/05/19 10:50:03;;;;;;;14.77;9.80;;;;;;;;;;4345903;33;20028;-70
2022/05/19 10:52:41;;;;;;;11.00;9.68;;;;;;;;;;4354906;32;20031;-70
2022/05/19 10:55:16;;;;;;;13.02;10.63;;;;;;;;;;4360621;32;20546;-70
2022/05/19 10:57:51;;;;;;;18.45;10.95;;;;;;;;;;4360062;32;20052;-70
2022/05/19 11:00:30;;;;;;;12.43;10.70;;;;;;;;;;4361630;32;20054;-69
2022/05/19 11:03:05;;;;;;;15.13;11.93;;;;;;;;;;4360971;32;20031;-69
2022/05/19 11:05:33;;;;;;;15.90;11.75;;;;;;;;;;4359311;32;20095;-70
2022/05/19 11:08:16;;;;;;;27.52;17.98;;;;;;;;;;4360864;32;20027;-73
2022/05/19 11:10:53;;;;;;;41.55;24.75;;;;;;;;;;4361943;32;20414;-73
2022/05/19 11:13:25;;;;;;;23.20;13.85;;;;;;;;;;4361963;32;20024;-72
2022/05/19 11:16:00;;;;;;;16.52;11.25;;;;;;;;;;4347716;33;20061;-74
2022/05/19 11:18:32;;;;;;;22.25;14.45;;;;;;;;;;4361034;32;20094;-73
2022/05/19 11:21:06;;;;;;;22.83;16.92;;;;;;;;;;4361392;32;20024;-73
2022/05/19 11:23:34;;;;;;;25.42;19.50;;;;;;;;;;4345781;32;20135;-72
2022/05/19 11:26:27;;;;;;;27.23;22.45;;;;;;;;;;4345751;33;20028;-71
2022/05/19 11:29:01;;;;;;;31.02;25.62;;;;;;;;;;4356416;33;20448;-72
2022/05/19 11:31:45;;;;;;;36.90;30.95;;;;;;;;;;4347080;33;20054;-73
2022/05/19 11:34:24;;;;;;;35.60;31.70;;;;;;;;;;4345209;33;20061;-73
2022/05/19 11:36:52;;;;;;;45.03;34.60;;;;;;;;;;4345359;33;20103;-73
2022/05/19 11:39:20;;;;;;;47.35;38.53;;;;;;;;;;4345531;33;20118;-72
2022/05/19 11:41:47;;;;;;;40.45;33.13;;;;;;;;;;4344424;33;20053;-72
2022/05/19 11:44:21;;;;;;;38.03;33.40;;;;;;;;;;4345466;33;20143;-72
2022/05/19 11:46:50;;;;;;;43.45;32.85;;;;;;;;;;4345423;33;20035;-73
2022/05/19 11:55:12;;;;;;;45.38;35.97;;;;;;;;;;4360358;33;20417;-72
2022/05/19 11:57:59;;;;;;;42.22;32.63;;;;;;;;;;4359775;32;20101;-73
2022/05/19 12:00:24;;;;;;;49.58;38.72;;;;;;;;;;4361042;32;20031;-71
2022/05/19 12:02:55;;;;;;;48.53;35.15;;;;;;;;;;4361195;32;20023;-73
2022/05/19 12:05:24;;;;;;;50.67;38.53;;;;;;;;;;4359779;32;20053;-72
2022/05/19 12:07:52;;;;;;;49.78;40.45;;;;;;;;;;4361388;32;20043;-73
2022/05/19 12:10:19;;;;;;;41.85;36.42;;;;;;;;;;4360678;32;20053;-72
2022/05/19 12:12:49;;;;;;;49.20;36.35;;;;;;;;;;4359996;33;20036;-72
2022/05/19 12:15:17;;;;;;;43.70;38.92;;;;;;;;;;4359577;32;20440;-73
2022/05/19 12:17:44;;;;;;;51.65;41.83;;;;;;;;;;4360944;32;20089;-71
2022/05/19 12:20:28;;;;;;;55.05;40.83;;;;;;;;;;4363421;32;20039;-73
2022/05/19 12:23:13;;;;;;;42.15;34.80;;;;;;;;;;4350234;32;20059;-72
2022/05/19 12:25:38;;;;;;;49.28;40.78;;;;;;;;;;4349590;32;20036;-72
2022/05/19 12:28:12;;;;;;;43.90;37.22;;;;;;;;;;4347015;33;20050;-73
2022/05/19 12:33:36;;;;;;;46.97;40.35;;;;;;;;;;4348983;33;20043;-73
2022/05/19 12:36:06;;;;;;;55.33;42.05;;;;;;;;;;4359849;32;20319;-73
2022/05/19 12:38:34;;;;;;;52.10;41.10;;;;;;;;;;4347119;32;20035;-73
2022/05/19 12:41:03;;;;;;;51.80;41.00;;;;;;;;;;4358605;32;20031;-73
2022/05/19 12:43:37;;;;;;;48.80;39.42;;;;;;;;;;4348129;32;20031;-73
2022/05/19 12:46:03;;;;;;;52.83;43.67;;;;;;;;;;4347230;33;20028;-73
2022/05/19 12:48:31;;;;;;;50.45;40.88;;;;;;;;;;4348657;33;20019;-74
2022/05/19 12:51:05;;;;;;;47.30;41.40;;;;;;;;;;4348296;32;20067;-74
2022/05/19 12:53:33;;;;;;;45.85;39.28;;;;;;;;;;4357077;32;20070;-75
2022/05/19 12:55:58;;;;;;;40.92;36.13;;;;;;;;;;4347141;32;20468;-72
2022/05/19 12:58:41;;;;;;;38.25;32.55;;;;;;;;;;4348015;33;20027;-73
2022/05/19 13:01:13;;;;;;;36.65;30.73;;;;;;;;;;4346906;32;20058;-73
2022/05/19 13:03:40;;;;;;;31.70;23.60;;;;;;;;;;4348599;32;20050;-72
2022/05/19 13:06:06;;;;;;;26.80;22.65;;;;;;;;;;4346781;32;20119;-72
2022/05/19 13:08:32;;;;;;;30.30;20.42;;;;;;;;;;4348180;32;20039;-72
2022/05/19 13:10:59;;;;;;;22.95;20.60;;;;;;;;;;4345532;33;20028;-73
2022/05/19 13:13:32;;;;;;;20.30;17.85;;;;;;;;;;4346976;32;20054;-73
2022/05/19 13:15:58;;;;;;;19.58;15.85;;;;;;;;;;4348573;32;20066;-73
2022/05/19 13:18:28;;;;;;;22.23;18.35;;;;;;;;;;4348190;32;20409;-73
2022/05/19 13:21:11;;;;;;;17.95;15.45;;;;;;;;;;4349071;32;20039;-72
2022/05/19 13:23:39;;;;;;;17.70;14.38;;;;;;;;;;4362955;32;20053;-69
2022/05/19 13:26:08;;;;;;;12.93;11.23;;;;;;;;;;4362918;32;20179;-69
2022/05/19 13:31:21;;;;;;;17.50;11.65;;;;;;;;;;4362482;32;20050;-70
2022/05/19 13:33:48;;;;;;;13.57;9.65;;;;;;;;;;4361323;32;20404;-71
2022/05/19 13:36:13;;;;;;;12.60;10.35;;;;;;;;;;4361450;32;20124;-70
2022/05/19 13:38:38;;;;;;;14.93;11.40;;;;;;;;;;4362473;32;20027;-71
2022/05/19 13:41:05;;;;;;;13.23;9.23;;;;;;;;;;4373367;32;20509;-70
2022/05/19 13:43:39;;;;;;;10.48;9.00;;;;;;;;;;4362981;32;20049;-70
2022/05/19 13:46:05;;;;;;;11.98;10.27;;;;;;;;;;4362500;32;20027;-71
2022/05/19 13:48:50;;;;;;;12.77;10.00;;;;;;;;;;4362612;32;20077;-70
2022/05/19 13:51:18;;;;;;;12.35;10.07;;;;;;;;;;4358774;32;20128;-71
2022/05/19 13:53:44;;;;;;;14.95;9.82;;;;;;;;;;4351311;32;20062;-69
2022/05/19 13:56:10;;;;;;;12.90;10.65;;;;;;;;;;4349139;33;20082;-71
2022/05/19 13:58:35;;;;;;;14.07;10.27;;;;;;;;;;4349817;33;20074;-70
2022/05/19 14:01:01;;;;;;;12.48;10.95;;;;;;;;;;4346965;33;20361;-70
2022/05/19 14:03:27;;;;;;;12.57;9.90;;;;;;;;;;4346040;33;20081;-70
2022/05/19 14:05:53;;;;;;;8.23;5.93;;;;;;;;;;4346361;32;20056;-71
2022/05/19 14:08:20;;;;;;;10.20;8.57;;;;;;;;;;4347168;32;20024;-71
2022/05/19 14:10:51;;;;;;;9.80;7.22;;;;;;;;;;4347408;32;20036;-70
2022/05/19 14:13:18;;;;;;;13.55;8.05;;;;;;;;;;4346586;32;20069;-70
2022/05/19 14:15:52;;;;;;;11.02;5.82;;;;;;;;;;4346418;32;20031;-71
2022/05/19 14:18:22;;;;;;;9.95;6.85;;;;;;;;;;4346816;32;20123;-70
2022/05/19 14:20:52;;;;;;;5.87;4.12;;;;;;;;;;4347204;32;20069;-71
2022/05/19 14:23:20;;;;;;;7.68;3.58;;;;;;;;;;4358764;32;20106;-71
2022/05/19 14:25:50;;;;;;;8.43;3.97;;;;;;;;;;4357908;32;20035;-72
2022/05/19 14:28:33;;;;;;;7.00;4.47;;;;;;;;;;4347919;32;20374;-71
2022/05/19 14:31:00;;;;;;;4.37;3.12;;;;;;;;;;4347662;32;20485;-71
2022/05/19 14:33:27;;;;;;;7.72;4.10;;;;;;;;;;4345818;33;20031;-70
2022/05/19 14:35:59;;;;;;;5.35;3.72;;;;;;;;;;4346061;33;20062;-70
2022/05/19 14:38:33;;;;;;;6.00;3.10;;;;;;;;;;4345991;33;20027;-70
2022/05/19 14:43:49;;;;;;;6.53;2.75;;;;;;;;;;4345730;33;20045;-71
2022/05/19 14:46:14;;;;;;;5.57;2.87;;;;;;;;;;4346999;33;20381;-71
2022/05/19 14:48:41;;;;;;;8.00;3.83;;;;;;;;;;4346802;33;20077;-71
2022/05/19 14:51:10;;;;;;;9.45;4.50;;;;;;;;;;4347688;32;20024;-71
2022/05/19 14:53:35;;;;;;;6.70;3.70;;;;;;;;;;4360461;32;20058;-71
2022/05/19 14:56:09;;;;;;;7.40;3.85;;;;;;;;;;4360959;32;20098;-72
2022/05/19 14:58:38;;;;;;;11.98;4.45;;;;;;;;;;4360115;32;20053;-72